Time;durP1;ratioP1;P1;durP2;ratioP2;P2;SDS_P1;SDS_P2;PMS_P1;PMS_P2;Temp;Humidity;BMP_temperature;BMP_pressure;BME280_temperature;BME280_humidity;BME280_pressure;Samples;Min_cycle;Max_cycle;Signal;HPM_P1;HPM_P2
2022/01/27 00:02:42;;;;;;;19.23;8.18;;;;;;;;;;7395121;19;20001;-79
2022/01/27 00:05:18;;;;;;;22.35;8.30;;;;;;;;;;7394010;19;20010;-80
2022/01/27 00:07:44;;;;;;;;;;;;;;;;;;7394550;19;20241;-77
2022/01/27 00:12:42;;;;;;;20.70;8.07;;;;;;;;;;7393251;19;20006;-79
2022/01/27 00:15:11;;;;;;;21.73;8.90;;;;;;;;;;7394257;19;20438;-78
2022/01/27 00:17:45;;;;;;;24.67;9.55;;;;;;;;;;7389789;19;20041;-79
2022/01/27 00:20:12;;;;;;;23.00;9.15;;;;;;;;;;7393781;19;20011;-78
2022/01/27 00:22:37;;;;;;;16.88;7.72;;;;;;;;;;7392997;19;20174;-78
2022/01/27 00:25:05;;;;;;;20.98;8.88;;;;;;;;;;7393124;19;20019;-79
2022/01/27 00:27:31;;;;;;;22.17;9.65;;;;;;;;;;7392941;19;20007;-80
2022/01/27 00:29:56;;;;;;;19.75;8.05;;;;;;;;;;7392963;19;20107;-79
2022/01/27 00:32:21;;;;;;;21.05;9.45;;;;;;;;;;7392044;19;20017;-79
2022/01/27 00:34:46;;;;;;;23.23;9.60;;;;;;;;;;7392675;19;20003;-78
2022/01/27 00:37:12;;;;;;;19.77;8.82;;;;;;;;;;7394156;19;20039;-78
2022/01/27 00:39:37;;;;;;;22.10;9.15;;;;;;;;;;7392743;19;20032;-78
2022/01/27 00:42:02;;;;;;;19.10;9.20;;;;;;;;;;7391734;19;20027;-79
2022/01/27 00:44:28;;;;;;;25.20;9.25;;;;;;;;;;7392850;19;20928;-80
2022/01/27 00:46:53;;;;;;;21.73;9.48;;;;;;;;;;7394777;19;20010;-78
2022/01/27 00:49:18;;;;;;;18.20;8.45;;;;;;;;;;7393141;19;19999;-78
2022/01/27 00:51:46;;;;;;;17.83;7.97;;;;;;;;;;7392406;19;20014;-80
2022/01/27 00:54:19;;;;;;;21.85;8.57;;;;;;;;;;7391678;19;20011;-79
2022/01/27 00:56:51;;;;;;;21.02;8.70;;;;;;;;;;7391693;19;20040;-79
2022/01/27 00:59:31;;;;;;;25.25;10.05;;;;;;;;;;7391952;19;20126;-79
2022/01/27 01:04:44;;;;;;;25.80;10.00;;;;;;;;;;7393271;19;20013;-78
2022/01/27 01:07:10;;;;;;;26.52;10.93;;;;;;;;;;7391682;19;20011;-78
2022/01/27 01:33:09;;;;;;;22.55;8.68;;;;;;;;;;7391218;19;20018;-79
2022/01/27 01:35:48;;;;;;;19.67;8.18;;;;;;;;;;7391121;19;20013;-78
2022/01/27 01:38:19;;;;;;;18.27;7.55;;;;;;;;;;7390886;19;20142;-79
2022/01/27 01:40:49;;;;;;;20.08;9.00;;;;;;;;;;7391241;19;20010;-78
2022/01/27 01:43:15;;;;;;;27.63;10.10;;;;;;;;;;7388247;19;20007;-78
2022/01/27 01:45:41;;;;;;;27.95;11.18;;;;;;;;;;7390682;19;20008;-79
2022/01/27 01:48:06;;;;;;;29.63;11.20;;;;;;;;;;7390138;19;20062;-79
2022/01/27 01:50:32;;;;;;;23.50;10.73;;;;;;;;;;7390857;19;20010;-78
2022/01/27 01:52:57;;;;;;;28.70;9.93;;;;;;;;;;7389280;19;20022;-78
2022/01/27 01:55:23;;;;;;;24.05;9.75;;;;;;;;;;7391226;19;20011;-77
2022/01/27 01:57:50;;;;;;;20.65;9.15;;;;;;;;;;7388072;19;20080;-78
2022/01/27 02:00:17;;;;;;;29.67;11.68;;;;;;;;;;7389261;19;20138;-79
2022/01/27 02:02:43;;;;;;;25.40;10.38;;;;;;;;;;7389940;19;20007;-78
2022/01/27 02:05:08;;;;;;;21.92;10.20;;;;;;;;;;7389570;19;20074;-80
2022/01/27 02:07:48;;;;;;;21.48;9.48;;;;;;;;;;7387585;19;20122;-78
2022/01/27 02:18:28;;;;;;;20.08;9.25;;;;;;;;;;7388961;19;20082;-78
2022/01/27 02:20:53;;;;;;;19.73;9.13;;;;;;;;;;7388657;19;20345;-79
2022/01/27 02:23:19;;;;;;;25.55;10.90;;;;;;;;;;7388170;19;20018;-79
2022/01/27 02:25:45;;;;;;;23.52;10.63;;;;;;;;;;7388658;19;20091;-78
2022/01/27 02:28:10;;;;;;;21.52;9.93;;;;;;;;;;7386364;19;20009;-78
2022/01/27 02:30:35;;;;;;;20.65;9.60;;;;;;;;;;7387146;19;20318;-78
2022/01/27 02:33:01;;;;;;;24.40;9.55;;;;;;;;;;7388569;19;20011;-78
2022/01/27 02:35:29;;;;;;;20.63;8.63;;;;;;;;;;7387722;19;20077;-79
2022/01/27 02:37:54;;;;;;;27.13;10.60;;;;;;;;;;7386701;19;20010;-78
2022/01/27 02:40:26;;;;;;;22.55;10.20;;;;;;;;;;7387407;19;20012;-78
2022/01/27 02:42:52;;;;;;;19.90;9.02;;;;;;;;;;7393723;19;20107;-80
2022/01/27 02:45:22;;;;;;;31.75;12.18;;;;;;;;;;7394455;19;20014;-78
2022/01/27 02:47:48;;;;;;;28.35;11.43;;;;;;;;;;7392917;19;20026;-80
2022/01/27 02:50:13;;;;;;;24.58;9.95;;;;;;;;;;7395226;19;20136;-78
2022/01/27 02:52:38;;;;;;;25.27;10.88;;;;;;;;;;7391071;19;19999;-77
2022/01/27 02:55:04;;;;;;;24.42;10.80;;;;;;;;;;7393263;19;20017;-78
2022/01/27 02:57:30;;;;;;;25.73;10.70;;;;;;;;;;7394682;19;20011;-78
2022/01/27 02:59:55;;;;;;;25.02;11.35;;;;;;;;;;7392337;19;20082;-79
2022/01/27 03:02:21;;;;;;;25.20;10.20;;;;;;;;;;7391648;19;20057;-78
2022/01/27 03:04:46;;;;;;;28.67;11.93;;;;;;;;;;7395285;19;20013;-78
2022/01/27 03:07:12;;;;;;;25.20;10.32;;;;;;;;;;7395353;19;20006;-77
2022/01/27 03:09:38;;;;;;;21.98;10.05;;;;;;;;;;7393870;19;20018;-78
2022/01/27 03:12:10;;;;;;;26.40;11.13;;;;;;;;;;7393018;19;20010;-78
2022/01/27 03:14:37;;;;;;;22.30;10.27;;;;;;;;;;7392038;19;20014;-79
2022/01/27 03:17:04;;;;;;;24.77;10.38;;;;;;;;;;7396560;19;20042;-79
2022/01/27 03:19:30;;;;;;;29.02;11.30;;;;;;;;;;7393461;19;20002;-79
2022/01/27 03:21:56;;;;;;;27.70;11.80;;;;;;;;;;7393052;19;20468;-78
2022/01/27 03:24:23;;;;;;;25.85;11.02;;;;;;;;;;7394502;19;20011;-80
2022/01/27 03:26:49;;;;;;;29.02;10.52;;;;;;;;;;7394443;19;20454;-78
2022/01/27 03:29:16;;;;;;;28.17;11.93;;;;;;;;;;7393248;19;20019;-78
2022/01/27 03:31:42;;;;;;;25.25;11.45;;;;;;;;;;7392766;19;19998;-78
2022/01/27 03:34:07;;;;;;;28.80;11.82;;;;;;;;;;7393561;19;20041;-80
2022/01/27 03:36:33;;;;;;;33.08;12.77;;;;;;;;;;7392785;19;20089;-79
2022/01/27 03:38:58;;;;;;;24.13;10.48;;;;;;;;;;7392240;19;20027;-78
2022/01/27 03:41:23;;;;;;;24.67;10.60;;;;;;;;;;7392171;19;20103;-77
2022/01/27 03:43:50;;;;;;;24.88;11.38;;;;;;;;;;7392579;19;20007;-78
2022/01/27 03:46:16;;;;;;;27.20;10.85;;;;;;;;;;7393343;19;19998;-78
2022/01/27 03:48:42;;;;;;;29.55;12.35;;;;;;;;;;7392651;19;20006;-78
2022/01/27 03:51:08;;;;;;;30.33;12.82;;;;;;;;;;7389749;19;20318;-79
2022/01/27 03:53:33;;;;;;;28.83;11.18;;;;;;;;;;7391102;19;20096;-78
2022/01/27 03:55:59;;;;;;;26.42;11.82;;;;;;;;;;7392331;19;20003;-78
2022/01/27 03:58:24;;;;;;;30.05;12.55;;;;;;;;;;7391402;19;20007;-81
2022/01/27 04:00:50;;;;;;;30.27;13.50;;;;;;;;;;7391225;19;20078;-79
2022/01/27 04:03:17;;;;;;;26.55;11.30;;;;;;;;;;7392064;19;20010;-78
2022/01/27 04:05:50;;;;;;;31.40;13.38;;;;;;;;;;7393097;19;20367;-81
2022/01/27 04:08:16;;;;;;;23.33;10.88;;;;;;;;;;7389919;19;19999;-79
2022/01/27 04:10:42;;;;;;;24.13;10.38;;;;;;;;;;7391295;19;20013;-79
2022/01/27 04:13:08;;;;;;;23.15;9.70;;;;;;;;;;7391981;19;20006;-79
2022/01/27 04:15:35;;;;;;;30.05;11.55;;;;;;;;;;7389672;19;20023;-79
2022/01/27 04:18:00;;;;;;;24.48;10.63;;;;;;;;;;7390247;19;20007;-79
2022/01/27 04:20:26;;;;;;;29.90;10.90;;;;;;;;;;7389909;19;20031;-79
2022/01/27 04:22:51;;;;;;;22.77;9.88;;;;;;;;;;7390941;19;20022;-79
2022/01/27 04:25:17;;;;;;;22.00;10.52;;;;;;;;;;7391551;19;20458;-79
2022/01/27 04:27:47;;;;;;;25.48;9.73;;;;;;;;;;7391313;19;20065;-78
2022/01/27 04:30:17;;;;;;;28.83;11.32;;;;;;;;;;7389528;19;20006;-77
2022/01/27 04:32:50;;;;;;;21.90;10.57;;;;;;;;;;7391273;19;20010;-77
2022/01/27 04:35:19;;;;;;;21.50;10.65;;;;;;;;;;7391569;19;20465;-78
2022/01/27 04:40:40;;;;;;;26.75;10.20;;;;;;;;;;7392354;19;20035;-79
2022/01/27 04:43:20;;;;;;;20.52;9.98;;;;;;;;;;7390483;19;20010;-79
2022/01/27 04:46:00;;;;;;;19.90;8.50;;;;;;;;;;7389434;19;20110;-79
2022/01/27 04:48:28;;;;;;;22.30;10.25;;;;;;;;;;7389271;19;20014;-78
2022/01/27 04:50:55;;;;;;;22.80;9.25;;;;;;;;;;7390259;19;20470;-77
2022/01/27 04:53:27;;;;;;;23.33;10.52;;;;;;;;;;7388159;19;20010;-78
2022/01/27 04:55:55;;;;;;;20.83;9.35;;;;;;;;;;7389123;19;20055;-78
2022/01/27 04:58:28;;;;;;;25.95;10.38;;;;;;;;;;7387857;19;20010;-80
2022/01/27 05:00:56;;;;;;;25.38;11.23;;;;;;;;;;7389363;19;20027;-78
2022/01/27 05:03:33;;;;;;;26.75;10.25;;;;;;;;;;7387948;19;20031;-78
2022/01/27 05:05:58;;;;;;;24.38;10.25;;;;;;;;;;7387274;19;20021;-77
2022/01/27 05:08:24;;;;;;;22.63;9.88;;;;;;;;;;7389766;19;20043;-77
2022/01/27 05:11:00;;;;;;;18.55;8.25;;;;;;;;;;7388233;19;20070;-78
2022/01/27 05:13:27;;;;;;;21.13;9.75;;;;;;;;;;7389595;19;20010;-80
2022/01/27 05:15:53;;;;;;;22.60;9.50;;;;;;;;;;7387524;19;20011;-80
2022/01/27 05:18:20;;;;;;;22.30;10.52;;;;;;;;;;7388937;19;20014;-78
2022/01/27 05:20:46;;;;;;;22.50;10.15;;;;;;;;;;7387917;19;20006;-78
2022/01/27 05:23:12;;;;;;;20.92;9.75;;;;;;;;;;7344911;19;20470;-79
2022/01/27 05:25:38;;;;;;;20.63;9.65;;;;;;;;;;7388480;19;20010;-80
2022/01/27 05:28:03;;;;;;;23.42;10.15;;;;;;;;;;7390387;19;20426;-81
2022/01/27 05:30:30;;;;;;;32.30;12.38;;;;;;;;;;7387107;19;20023;-78
2022/01/27 05:32:55;;;;;;;21.88;9.88;;;;;;;;;;7389227;19;20031;-77
2022/01/27 05:35:20;;;;;;;18.10;8.88;;;;;;;;;;7391097;19;20485;-78
2022/01/27 05:37:45;;;;;;;21.33;10.07;;;;;;;;;;7389515;19;20006;-78
2022/01/27 05:40:11;;;;;;;23.48;10.23;;;;;;;;;;7387447;19;20003;-77
2022/01/27 05:42:36;;;;;;;27.60;10.93;;;;;;;;;;7387032;19;20007;-78
2022/01/27 05:45:02;;;;;;;21.02;9.63;;;;;;;;;;7388523;19;20027;-77
2022/01/27 05:47:28;;;;;;;20.20;9.13;;;;;;;;;;7387999;19;20009;-77
2022/01/27 05:49:53;;;;;;;27.20;11.77;;;;;;;;;;7388090;19;20065;-78
2022/01/27 05:52:19;;;;;;;27.40;12.80;;;;;;;;;;7388282;19;20347;-79
2022/01/27 05:54:45;;;;;;;38.20;16.17;;;;;;;;;;7388427;19;20442;-78
2022/01/27 05:57:10;;;;;;;37.03;13.68;;;;;;;;;;7389355;19;20447;-79
2022/01/27 05:59:35;;;;;;;27.67;12.30;;;;;;;;;;7387073;19;20821;-78
2022/01/27 06:02:01;;;;;;;25.15;11.23;;;;;;;;;;7386899;19;20007;-80
2022/01/27 06:04:26;;;;;;;21.55;9.13;;;;;;;;;;7389242;19;20002;-78
2022/01/27 06:06:53;;;;;;;27.10;11.73;;;;;;;;;;7389170;19;20010;-77
2022/01/27 06:09:18;;;;;;;22.65;9.50;;;;;;;;;;7387435;19;20547;-78
2022/01/27 06:11:44;;;;;;;21.85;9.18;;;;;;;;;;7387511;19;20015;-78
2022/01/27 06:14:09;;;;;;;23.02;9.50;;;;;;;;;;7388513;19;20473;-79
2022/01/27 06:16:34;;;;;;;24.23;8.98;;;;;;;;;;7390031;19;20006;-78
2022/01/27 06:19:02;;;;;;;22.17;10.57;;;;;;;;;;7393904;19;20323;-78
2022/01/27 06:21:27;;;;;;;26.30;10.57;;;;;;;;;;7393607;19;20439;-78
2022/01/27 06:23:52;;;;;;;22.60;9.68;;;;;;;;;;7396912;19;20006;-79
2022/01/27 06:26:17;;;;;;;21.30;9.23;;;;;;;;;;7396088;19;20108;-80
2022/01/27 06:28:43;;;;;;;18.33;8.30;;;;;;;;;;7395120;19;20010;-78
2022/01/27 06:31:08;;;;;;;21.52;9.57;;;;;;;;;;7393926;19;20090;-79
2022/01/27 06:33:33;;;;;;;20.70;8.55;;;;;;;;;;7395472;19;20011;-78
2022/01/27 06:35:59;;;;;;;19.92;8.15;;;;;;;;;;7395705;19;20098;-78
2022/01/27 06:38:24;;;;;;;25.58;9.38;;;;;;;;;;7395591;19;20033;-79
2022/01/27 06:40:49;;;;;;;29.95;10.77;;;;;;;;;;7394838;19;20042;-77
2022/01/27 06:43:15;;;;;;;21.15;8.98;;;;;;;;;;7391848;19;20040;-78
2022/01/27 06:45:40;;;;;;;26.30;9.82;;;;;;;;;;7391335;19;20342;-80
2022/01/27 06:48:06;;;;;;;23.65;9.65;;;;;;;;;;7395108;19;20016;-78
2022/01/27 06:50:32;;;;;;;17.17;7.80;;;;;;;;;;7395397;19;20002;-77
2022/01/27 06:52:59;;;;;;;17.35;8.27;;;;;;;;;;7394631;19;20014;-77
2022/01/27 06:55:25;;;;;;;20.90;9.07;;;;;;;;;;7398548;19;20732;-79
2022/01/27 06:57:50;;;;;;;25.80;10.20;;;;;;;;;;7397803;19;20006;-77
2022/01/27 07:00:16;;;;;;;20.27;7.88;;;;;;;;;;7393095;19;20013;-77
2022/01/27 07:02:42;;;;;;;29.77;12.77;;;;;;;;;;7394861;19;20026;-77
2022/01/27 07:05:08;;;;;;;26.70;11.27;;;;;;;;;;7393505;19;20006;-77
2022/01/27 07:07:33;;;;;;;29.52;12.07;;;;;;;;;;7394668;19;19990;-77
2022/01/27 07:09:58;;;;;;;18.15;8.50;;;;;;;;;;7391717;19;20347;-78
2022/01/27 07:12:24;;;;;;;20.38;8.18;;;;;;;;;;7392418;19;20009;-79
2022/01/27 07:14:49;;;;;;;23.27;8.60;;;;;;;;;;7393428;19;20015;-78
2022/01/27 07:17:17;;;;;;;18.85;7.97;;;;;;;;;;7396294;19;20003;-79
2022/01/27 07:19:42;;;;;;;20.80;8.05;;;;;;;;;;7396351;19;20011;-78
2022/01/27 07:22:07;;;;;;;21.10;9.35;;;;;;;;;;7394539;19;20005;-77
2022/01/27 07:24:33;;;;;;;20.60;8.02;;;;;;;;;;7396363;19;20042;-78
2022/01/27 07:26:58;;;;;;;18.38;8.07;;;;;;;;;;7396818;19;19998;-78
2022/01/27 07:29:23;;;;;;;20.02;8.75;;;;;;;;;;7392791;19;20009;-79
2022/01/27 07:31:49;;;;;;;20.83;8.88;;;;;;;;;;7394207;19;20413;-79
2022/01/27 07:34:14;;;;;;;18.27;7.53;;;;;;;;;;7395299;19;20006;-76
2022/01/27 07:36:40;;;;;;;18.33;8.32;;;;;;;;;;7393700;19;20022;-78
2022/01/27 07:39:12;;;;;;;18.65;8.18;;;;;;;;;;7395027;19;20387;-78
2022/01/27 07:41:37;;;;;;;14.63;7.13;;;;;;;;;;7395028;19;20013;-79
2022/01/27 07:44:02;;;;;;;15.80;6.60;;;;;;;;;;7395813;19;20342;-78
2022/01/27 07:46:28;;;;;;;21.15;8.68;;;;;;;;;;7398616;19;20353;-77
2022/01/27 07:48:53;;;;;;;20.52;7.78;;;;;;;;;;7395409;19;20089;-79
2022/01/27 07:51:18;;;;;;;18.98;9.00;;;;;;;;;;7394409;19;20031;-79
2022/01/27 07:53:43;;;;;;;17.00;8.30;;;;;;;;;;7397026;19;19999;-78
2022/01/27 07:56:09;;;;;;;20.17;8.52;;;;;;;;;;7395764;19;19998;-79
2022/01/27 07:58:38;;;;;;;18.48;8.20;;;;;;;;;;7394169;19;20388;-80
2022/01/27 08:01:05;;;;;;;19.75;8.65;;;;;;;;;;7393687;19;19998;-78
2022/01/27 08:03:30;;;;;;;17.25;7.93;;;;;;;;;;7394064;19;20108;-79
2022/01/27 08:05:55;;;;;;;21.77;9.27;;;;;;;;;;7394571;19;20014;-78
2022/01/27 08:08:21;;;;;;;18.38;8.82;;;;;;;;;;7393045;19;19995;-79
2022/01/27 08:10:48;;;;;;;20.55;9.40;;;;;;;;;;7396028;19;20033;-80
2022/01/27 08:13:14;;;;;;;19.20;8.65;;;;;;;;;;7399352;19;20107;-79
2022/01/27 08:15:39;;;;;;;20.48;8.95;;;;;;;;;;7396404;19;20048;-79
2022/01/27 08:18:05;;;;;;;18.23;8.55;;;;;;;;;;7398160;19;19995;-77
2022/01/27 08:20:31;;;;;;;19.60;9.40;;;;;;;;;;7395237;19;20047;-79
2022/01/27 08:22:57;;;;;;;17.95;9.52;;;;;;;;;;7398166;19;20003;-78
2022/01/27 08:25:23;;;;;;;24.38;10.68;;;;;;;;;;7397602;19;20086;-78
2022/01/27 08:27:55;;;;;;;24.88;9.25;;;;;;;;;;7398554;19;20010;-78
2022/01/27 08:30:23;;;;;;;13.40;7.15;;;;;;;;;;7393238;19;20002;-78
2022/01/27 08:33:04;;;;;;;18.30;8.38;;;;;;;;;;7398011;19;20014;-79
2022/01/27 08:35:29;;;;;;;22.70;10.38;;;;;;;;;;7398671;19;20434;-79
2022/01/27 08:37:54;;;;;;;17.88;8.23;;;;;;;;;;7395881;19;20014;-77
2022/01/27 08:40:20;;;;;;;21.85;9.55;;;;;;;;;;7392326;19;20491;-77
2022/01/27 08:42:46;;;;;;;17.30;8.85;;;;;;;;;;7390945;19;20011;-78
2022/01/27 08:45:15;;;;;;;18.60;9.70;;;;;;;;;;7391337;19;20018;-78
2022/01/27 08:47:43;;;;;;;16.80;9.48;;;;;;;;;;7393931;19;20082;-77
2022/01/27 08:50:10;;;;;;;13.02;7.07;;;;;;;;;;7396583;19;20499;-79
2022/01/27 08:52:35;;;;;;;21.17;9.73;;;;;;;;;;7398845;19;20006;-77
2022/01/27 08:55:02;;;;;;;20.92;8.98;;;;;;;;;;7397386;19;20031;-77
2022/01/27 08:57:27;;;;;;;14.10;7.85;;;;;;;;;;7397298;19;20027;-78
2022/01/27 08:59:53;;;;;;;17.80;8.93;;;;;;;;;;7393884;19;20473;-76
2022/01/27 09:02:22;;;;;;;16.67;8.35;;;;;;;;;;7392822;19;20028;-78
2022/01/27 09:04:47;;;;;;;17.88;8.10;;;;;;;;;;7391084;19;20307;-77
2022/01/27 09:07:15;;;;;;;15.65;8.40;;;;;;;;;;7393621;19;20014;-78
2022/01/27 09:09:40;;;;;;;16.13;9.07;;;;;;;;;;7389615;19;20348;-77
2022/01/27 09:12:06;;;;;;;18.75;9.68;;;;;;;;;;7390867;19;20015;-76
2022/01/27 09:14:31;;;;;;;20.35;10.38;;;;;;;;;;7394423;19;20180;-76
2022/01/27 09:17:00;;;;;;;21.92;10.27;;;;;;;;;;7394540;19;20002;-76
2022/01/27 09:19:26;;;;;;;20.63;10.60;;;;;;;;;;7393602;19;20046;-78
2022/01/27 09:21:54;;;;;;;19.30;9.77;;;;;;;;;;7387586;19;20023;-77
2022/01/27 09:24:26;;;;;;;19.55;10.00;;;;;;;;;;7394860;19;20031;-78
2022/01/27 09:26:59;;;;;;;20.58;10.18;;;;;;;;;;7395664;19;20020;-77
2022/01/27 09:29:25;;;;;;;18.48;9.48;;;;;;;;;;7392018;19;20006;-78
2022/01/27 09:31:51;;;;;;;18.65;10.05;;;;;;;;;;7392772;19;20018;-79
2022/01/27 09:34:17;;;;;;;16.23;8.20;;;;;;;;;;7393414;19;20078;-79
2022/01/27 09:36:42;;;;;;;27.35;9.48;;;;;;;;;;7394149;19;20006;-77
2022/01/27 09:39:08;;;;;;;15.95;8.05;;;;;;;;;;7390889;19;20006;-78
2022/01/27 09:41:37;;;;;;;16.48;9.15;;;;;;;;;;7391702;19;20006;-79
2022/01/27 09:44:04;;;;;;;15.75;8.13;;;;;;;;;;7392950;19;20051;-78
2022/01/27 09:46:31;;;;;;;20.20;8.77;;;;;;;;;;7390589;19;19999;-79
2022/01/27 09:49:54;;;;;;;16.23;8.50;;;;;;;;;;7393756;19;20751;-80
2022/01/27 09:52:20;;;;;;;14.95;8.23;;;;;;;;;;7403020;19;20018;-79
2022/01/27 09:54:46;;;;;;;16.15;7.47;;;;;;;;;;7407099;19;20323;-78
2022/01/27 09:57:17;;;;;;;16.20;8.18;;;;;;;;;;7414197;19;19995;-77
2022/01/27 09:59:45;;;;;;;11.57;7.22;;;;;;;;;;7405618;19;20037;-79
2022/01/27 10:02:18;;;;;;;17.65;7.95;;;;;;;;;;7407576;19;19998;-79
2022/01/27 10:04:46;;;;;;;16.30;8.52;;;;;;;;;;7408226;19;20386;-78
2022/01/27 10:07:17;;;;;;;17.42;8.68;;;;;;;;;;7408404;19;20130;-78
2022/01/27 10:10:07;;;;;;;16.35;8.60;;;;;;;;;;7407218;19;20005;-78
2022/01/27 10:12:48;;;;;;;19.27;8.77;;;;;;;;;;7404944;19;20006;-77
2022/01/27 10:15:19;;;;;;;21.55;9.30;;;;;;;;;;7405568;19;20002;-79
2022/01/27 10:18:11;;;;;;;22.27;9.95;;;;;;;;;;7405811;19;20014;-78
2022/01/27 10:21:01;;;;;;;18.85;9.15;;;;;;;;;;7405858;19;19999;-78
2022/01/27 10:23:31;;;;;;;21.27;9.38;;;;;;;;;;7406040;19;20542;-78
2022/01/27 10:26:07;;;;;;;16.88;8.70;;;;;;;;;;7406988;19;20014;-79
2022/01/27 10:28:45;;;;;;;17.20;8.23;;;;;;;;;;7405054;19;19994;-77
2022/01/27 10:31:12;;;;;;;15.20;7.45;;;;;;;;;;7404393;19;20182;-78
2022/01/27 10:33:52;;;;;;;22.73;9.13;;;;;;;;;;7406938;19;20002;-78
2022/01/27 10:36:22;;;;;;;21.40;9.18;;;;;;;;;;7403199;19;20020;-77
2022/01/27 10:38:53;;;;;;;16.45;8.15;;;;;;;;;;7405640;19;19998;-78
2022/01/27 10:41:20;;;;;;;20.20;8.60;;;;;;;;;;7406170;19;20094;-79
2022/01/27 10:43:45;;;;;;;14.30;7.18;;;;;;;;;;7402361;19;20002;-77
2022/01/27 10:46:26;;;;;;;17.38;8.10;;;;;;;;;;7405010;19;20332;-76
2022/01/27 10:49:05;;;;;;;15.18;7.45;;;;;;;;;;7403855;19;20010;-78
2022/01/27 10:51:39;;;;;;;16.10;7.43;;;;;;;;;;7404565;19;20014;-78
2022/01/27 10:54:06;;;;;;;16.25;7.95;;;;;;;;;;7408869;19;20023;-76
2022/01/27 10:56:38;;;;;;;13.48;7.05;;;;;;;;;;7402119;19;20045;-76
2022/01/27 10:59:06;;;;;;;13.98;7.32;;;;;;;;;;7399877;19;20501;-77
2022/01/27 11:01:33;;;;;;;25.08;9.00;;;;;;;;;;7398910;19;20013;-77
2022/01/27 11:04:03;;;;;;;12.93;6.82;;;;;;;;;;7394343;19;19999;-77
2022/01/27 11:06:31;;;;;;;12.82;6.32;;;;;;;;;;7394726;19;20469;-76
2022/01/27 11:08:58;;;;;;;13.95;6.35;;;;;;;;;;7393748;19;20010;-75
2022/01/27 11:11:26;;;;;;;15.25;6.68;;;;;;;;;;7393464;19;19995;-77
2022/01/27 11:13:53;;;;;;;21.02;8.23;;;;;;;;;;7393400;19;20006;-77
2022/01/27 11:16:23;;;;;;;13.32;7.18;;;;;;;;;;7393882;19;20009;-76
2022/01/27 11:18:49;;;;;;;17.27;7.88;;;;;;;;;;7394655;19;20003;-77
2022/01/27 11:21:32;;;;;;;18.15;7.97;;;;;;;;;;7394368;19;20009;-76
2022/01/27 11:24:15;;;;;;;15.10;7.35;;;;;;;;;;7395409;19;20352;-77
2022/01/27 11:26:43;;;;;;;16.77;8.88;;;;;;;;;;7394105;19;20040;-76
2022/01/27 11:29:10;;;;;;;19.00;8.30;;;;;;;;;;7391795;19;20022;-75
2022/01/27 11:32:13;;;;;;;13.65;7.45;;;;;;;;;;7388611;19;20122;-77
2022/01/27 11:34:53;;;;;;;15.82;7.32;;;;;;;;;;7395369;19;20006;-77
2022/01/27 11:37:38;;;;;;;16.55;7.43;;;;;;;;;;7394501;19;20028;-77
2022/01/27 11:40:12;;;;;;;13.75;7.45;;;;;;;;;;7393247;19;20007;-76
2022/01/27 11:42:37;;;;;;;12.63;6.70;;;;;;;;;;7392415;19;20002;-76
2022/01/27 11:45:21;;;;;;;14.80;6.57;;;;;;;;;;7391740;19;20422;-74
2022/01/27 11:47:53;;;;;;;12.98;7.28;;;;;;;;;;7392556;19;20011;-77
2022/01/27 11:50:34;;;;;;;12.90;7.22;;;;;;;;;;7393080;19;20028;-77
2022/01/27 11:53:01;;;;;;;12.48;7.30;;;;;;;;;;7392868;19;20005;-76
2022/01/27 11:55:26;;;;;;;13.00;6.68;;;;;;;;;;7394281;19;20018;-77
2022/01/27 11:57:53;;;;;;;15.23;7.55;;;;;;;;;;7393189;19;20002;-76
2022/01/27 12:00:21;;;;;;;13.13;7.72;;;;;;;;;;7392025;19;20066;-77
2022/01/27 12:02:58;;;;;;;12.88;6.80;;;;;;;;;;7389967;19;20346;-76
2022/01/27 12:05:24;;;;;;;15.13;6.85;;;;;;;;;;7394836;19;20018;-76
2022/01/27 12:08:14;;;;;;;18.02;7.38;;;;;;;;;;7391377;19;20006;-76
2022/01/27 12:11:11;;;;;;;15.77;7.80;;;;;;;;;;7389538;19;20491;-75
2022/01/27 12:13:42;;;;;;;21.13;6.93;;;;;;;;;;7386960;19;20007;-76
2022/01/27 12:16:11;;;;;;;13.68;7.68;;;;;;;;;;7391085;19;20019;-76
2022/01/27 12:18:37;;;;;;;19.92;7.65;;;;;;;;;;7392107;19;20553;-76
2022/01/27 12:21:31;;;;;;;16.75;7.50;;;;;;;;;;7389713;19;20003;-76
2022/01/27 12:24:29;;;;;;;12.02;6.07;;;;;;;;;;7392386;19;20736;-75
2022/01/27 12:26:56;;;;;;;10.43;6.25;;;;;;;;;;7389921;19;20029;-76
2022/01/27 12:29:23;;;;;;;12.05;7.03;;;;;;;;;;7391172;19;19990;-75
2022/01/27 12:31:50;;;;;;;13.27;7.18;;;;;;;;;;7389138;19;20010;-76
2022/01/27 12:34:16;;;;;;;12.82;7.20;;;;;;;;;;7392954;19;20134;-76
2022/01/27 12:36:56;;;;;;;14.30;6.45;;;;;;;;;;7392924;19;20006;-75
2022/01/27 12:39:24;;;;;;;15.30;7.82;;;;;;;;;;7391838;19;20096;-76
2022/01/27 12:41:50;;;;;;;12.32;6.20;;;;;;;;;;7387796;19;20352;-76
2022/01/27 12:44:16;;;;;;;12.70;7.03;;;;;;;;;;7390133;19;20021;-77
2022/01/27 12:47:05;;;;;;;10.10;5.45;;;;;;;;;;7390671;19;20529;-76
2022/01/27 12:49:46;;;;;;;16.08;8.25;;;;;;;;;;7392728;19;20003;-77
2022/01/27 12:52:18;;;;;;;20.20;8.88;;;;;;;;;;7390914;19;20448;-76
2022/01/27 12:54:45;;;;;;;16.85;8.07;;;;;;;;;;7390505;19;20367;-77
2022/01/27 12:57:13;;;;;;;14.27;7.25;;;;;;;;;;7392123;19;19999;-76
2022/01/27 12:59:43;;;;;;;14.65;7.70;;;;;;;;;;7389739;19;20027;-77
2022/01/27 13:02:11;;;;;;;17.27;7.55;;;;;;;;;;7391550;19;20030;-77
2022/01/27 13:04:38;;;;;;;15.10;7.95;;;;;;;;;;7393581;19;20481;-76
2022/01/27 13:07:04;;;;;;;16.73;7.88;;;;;;;;;;7391247;19;20034;-75
2022/01/27 13:09:32;;;;;;;14.82;7.78;;;;;;;;;;7398228;19;20657;-77
2022/01/27 13:12:09;;;;;;;14.45;7.18;;;;;;;;;;7398090;19;20399;-77
2022/01/27 13:14:34;;;;;;;17.63;8.18;;;;;;;;;;7394585;19;20003;-76
2022/01/27 13:17:06;;;;;;;21.92;8.95;;;;;;;;;;7391935;19;20497;-76
2022/01/27 13:19:45;;;;;;;16.48;8.20;;;;;;;;;;7391649;19;20018;-76
2022/01/27 13:22:16;;;;;;;16.42;7.70;;;;;;;;;;7393257;19;20122;-76
2022/01/27 13:24:46;;;;;;;16.30;7.10;;;;;;;;;;7390866;19;20011;-78
2022/01/27 13:27:13;;;;;;;15.05;7.05;;;;;;;;;;7391548;19;20362;-77
2022/01/27 13:29:40;;;;;;;12.88;6.22;;;;;;;;;;7388611;19;20036;-77
2022/01/27 13:32:08;;;;;;;13.63;6.35;;;;;;;;;;7393509;19;19987;-78
2022/01/27 13:34:33;;;;;;;12.85;6.10;;;;;;;;;;7392831;19;20021;-77
2022/01/27 13:37:01;;;;;;;11.98;5.43;;;;;;;;;;7390721;19;20003;-77
2022/01/27 13:41:16;;;;;;;9.18;5.00;;;;;;;;;;7390410;19;20029;-74
2022/01/27 13:42:22;;;;;;;10.77;5.57;;;;;;;;;;7385910;19;20002;-74
2022/01/27 13:44:59;;;;;;;12.40;5.47;;;;;;;;;;7388135;19;20569;-78
2022/01/27 13:47:27;;;;;;;13.25;6.75;;;;;;;;;;7391848;19;20002;-79
2022/01/27 13:50:03;;;;;;;11.63;5.60;;;;;;;;;;7393699;19;20011;-80
2022/01/27 13:52:38;;;;;;;;;;;;;;;;;;7392010;19;20006;-76
2022/01/27 13:55:08;;;;;;;12.80;5.80;;;;;;;;;;7393586;19;19930;-77
2022/01/27 13:57:46;;;;;;;17.88;6.85;;;;;;;;;;7389212;19;19999;-77
2022/01/27 14:00:14;;;;;;;13.90;6.43;;;;;;;;;;7386922;19;20496;-75
2022/01/27 14:02:43;;;;;;;14.77;5.93;;;;;;;;;;7386120;19;20022;-75
2022/01/27 14:05:09;;;;;;;12.50;5.57;;;;;;;;;;7390691;19;20020;-76
2022/01/27 14:07:36;;;;;;;13.20;5.97;;;;;;;;;;7388131;19;20039;-77
2022/01/27 14:10:25;;;;;;;13.05;5.70;;;;;;;;;;7390265;19;20006;-78
2022/01/27 14:13:05;;;;;;;11.30;6.15;;;;;;;;;;7391949;19;20069;-77
2022/01/27 14:15:44;;;;;;;11.65;4.80;;;;;;;;;;7391972;19;20014;-77
2022/01/27 14:18:17;;;;;;;9.88;5.43;;;;;;;;;;7392001;19;20039;-75
2022/01/27 14:20:51;;;;;;;8.80;4.43;;;;;;;;;;7389500;19;20007;-76
2022/01/27 14:23:18;;;;;;;8.95;4.43;;;;;;;;;;7390650;19;20017;-76
2022/01/27 14:25:53;;;;;;;9.73;4.10;;;;;;;;;;7392389;19;20443;-77
2022/01/27 14:28:19;;;;;;;9.48;5.10;;;;;;;;;;7392478;19;20059;-76
2022/01/27 14:30:45;;;;;;;6.97;4.18;;;;;;;;;;7392734;19;20025;-76
2022/01/27 14:33:11;;;;;;;7.68;3.92;;;;;;;;;;7393075;19;20039;-77
2022/01/27 14:35:36;;;;;;;10.00;4.53;;;;;;;;;;7388749;19;19987;-77
2022/01/27 14:38:02;;;;;;;13.07;5.03;;;;;;;;;;7395264;19;20344;-77
2022/01/27 14:40:27;;;;;;;6.70;3.95;;;;;;;;;;7396458;19;20006;-77
2022/01/27 14:42:57;;;;;;;5.90;2.83;;;;;;;;;;7395267;19;20019;-77
2022/01/27 14:45:22;;;;;;;9.45;4.03;;;;;;;;;;7398066;19;19999;-77
2022/01/27 14:47:48;;;;;;;8.73;3.50;;;;;;;;;;7399228;19;20001;-76
2022/01/27 14:50:16;;;;;;;10.65;4.75;;;;;;;;;;7397588;19;20045;-77
2022/01/27 14:52:43;;;;;;;7.53;4.13;;;;;;;;;;7400287;19;20583;-77
2022/01/27 14:55:15;;;;;;;8.85;3.38;;;;;;;;;;7400664;19;20356;-78
2022/01/27 14:57:42;;;;;;;5.30;2.70;;;;;;;;;;7400691;19;19998;-77
2022/01/27 15:00:10;;;;;;;7.20;3.35;;;;;;;;;;7396930;19;19987;-77
2022/01/27 15:02:37;;;;;;;6.40;3.30;;;;;;;;;;7397794;19;20863;-77
2022/01/27 15:05:04;;;;;;;5.03;3.25;;;;;;;;;;7400447;19;20039;-77
2022/01/27 15:07:29;;;;;;;5.53;2.90;;;;;;;;;;7398434;19;20002;-77
2022/01/27 15:09:54;;;;;;;5.47;3.00;;;;;;;;;;7362221;19;20010;-76
2022/01/27 15:12:20;;;;;;;7.13;2.90;;;;;;;;;;7393847;19;20007;-77
2022/01/27 15:20:13;;;;;;;4.88;2.53;;;;;;;;;;7395267;19;20073;-76
2022/01/27 15:22:39;;;;;;;6.63;3.40;;;;;;;;;;7395033;19;20003;-77
2022/01/27 15:25:05;;;;;;;5.65;3.40;;;;;;;;;;7396924;19;19998;-77